sensor_id;sensor_type;location;lat;lon;timestamp;temperature;humidity
5723;DHT22;2886;49.722;8.612;2022-11-21T00:00:43;6.50;99.90
5723;DHT22;2886;49.722;8.612;2022-11-21T00:03:10;6.50;99.90
5723;DHT22;2886;49.722;8.612;2022-11-21T00:05:41;6.50;99.90
5723;DHT22;2886;49.722;8.612;2022-11-21T00:08:11;6.50;99.90
5723;DHT22;2886;49.722;8.612;2022-11-21T00:10:37;6.50;99.90
5723;DHT22;2886;49.722;8.612;2022-11-21T00:13:04;6.50;99.90
5723;DHT22;2886;49.722;8.612;2022-11-21T00:15:30;6.50;99.90
5723;DHT22;2886;49.722;8.612;2022-11-21T00:17:55;6.50;99.90
5723;DHT22;2886;49.722;8.612;2022-11-21T00:20:21;6.50;99.90
5723;DHT22;2886;49.722;8.612;2022-11-21T00:22:48;6.50;99.90
5723;DHT22;2886;49.722;8.612;2022-11-21T00:25:14;6.60;99.90
5723;DHT22;2886;49.722;8.612;2022-11-21T00:27:40;6.60;99.90
5723;DHT22;2886;49.722;8.612;2022-11-21T00:30:08;6.60;99.90
5723;DHT22;2886;49.722;8.612;2022-11-21T00:32:34;6.60;99.90
5723;DHT22;2886;49.722;8.612;2022-11-21T00:35:00;6.60;99.90
5723;DHT22;2886;49.722;8.612;2022-11-21T00:37:26;6.60;99.90
5723;DHT22;2886;49.722;8.612;2022-11-21T00:39:52;6.60;99.90
5723;DHT22;2886;49.722;8.612;2022-11-21T00:42:17;6.60;99.90
5723;DHT22;2886;49.722;8.612;2022-11-21T00:44:43;6.60;99.90
5723;DHT22;2886;49.722;8.612;2022-11-21T00:47:08;6.60;99.90
5723;DHT22;2886;49.722;8.612;2022-11-21T00:49:34;6.50;99.90
5723;DHT22;2886;49.722;8.612;2022-11-21T00:52:00;6.50;99.90
5723;DHT22;2886;49.722;8.612;2022-11-21T00:54:25;6.40;99.90
5723;DHT22;2886;49.722;8.612;2022-11-21T00:56:51;6.30;99.90
5723;DHT22;2886;49.722;8.612;2022-11-21T00:59:17;6.30;99.90
5723;DHT22;2886;49.722;8.612;2022-11-21T01:01:42;6.30;99.90
5723;DHT22;2886;49.722;8.612;2022-11-21T01:04:09;6.20;99.90
5723;DHT22;2886;49.722;8.612;2022-11-21T01:06:37;6.30;99.90
5723;DHT22;2886;49.722;8.612;2022-11-21T01:09:03;6.30;99.90
5723;DHT22;2886;49.722;8.612;2022-11-21T01:11:28;6.30;99.90
5723;DHT22;2886;49.722;8.612;2022-11-21T01:13:54;6.30;99.90
5723;DHT22;2886;49.722;8.612;2022-11-21T01:16:22;6.30;99.90
5723;DHT22;2886;49.722;8.612;2022-11-21T01:18:49;6.30;99.90
5723;DHT22;2886;49.722;8.612;2022-11-21T01:23:43;6.30;99.90
5723;DHT22;2886;49.722;8.612;2022-11-21T01:26:12;6.30;99.90
5723;DHT22;2886;49.722;8.612;2022-11-21T01:28:38;6.20;99.90
5723;DHT22;2886;49.722;8.612;2022-11-21T01:33:30;6.10;99.90
5723;DHT22;2886;49.722;8.612;2022-11-21T01:35:55;6.00;99.90
5723;DHT22;2886;49.722;8.612;2022-11-21T01:38:21;5.90;99.90
5723;DHT22;2886;49.722;8.612;2022-11-21T01:40:46;5.90;99.90
5723;DHT22;2886;49.722;8.612;2022-11-21T01:43:14;5.90;99.90
5723;DHT22;2886;49.722;8.612;2022-11-21T01:48:28;5.80;99.90
5723;DHT22;2886;49.722;8.612;2022-11-21T01:50:55;5.90;99.90
5723;DHT22;2886;49.722;8.612;2022-11-21T01:53:22;5.80;99.90
5723;DHT22;2886;49.722;8.612;2022-11-21T01:55:48;5.80;99.90
5723;DHT22;2886;49.722;8.612;2022-11-21T01:58:15;5.80;99.90
5723;DHT22;2886;49.722;8.612;2022-11-21T02:00:41;5.80;99.90
5723;DHT22;2886;49.722;8.612;2022-11-21T02:03:11;5.80;99.90
5723;DHT22;2886;49.722;8.612;2022-11-21T02:05:39;5.80;99.90
5723;DHT22;2886;49.722;8.612;2022-11-21T02:08:12;5.70;99.90
5723;DHT22;2886;49.722;8.612;2022-11-21T02:10:40;5.70;99.90
5723;DHT22;2886;49.722;8.612;2022-11-21T02:13:07;5.70;99.90
5723;DHT22;2886;49.722;8.612;2022-11-21T02:15:32;5.70;99.90
5723;DHT22;2886;49.722;8.612;2022-11-21T02:17:59;5.70;99.90
5723;DHT22;2886;49.722;8.612;2022-11-21T02:20:26;5.70;99.90
5723;DHT22;2886;49.722;8.612;2022-11-21T02:23:12;5.70;99.90
5723;DHT22;2886;49.722;8.612;2022-11-21T02:25:40;5.60;99.90
5723;DHT22;2886;49.722;8.612;2022-11-21T02:28:18;5.60;99.90
5723;DHT22;2886;49.722;8.612;2022-11-21T02:30:45;5.60;99.90
5723;DHT22;2886;49.722;8.612;2022-11-21T02:33:11;5.60;99.90
5723;DHT22;2886;49.722;8.612;2022-11-21T02:35:37;5.60;99.90
5723;DHT22;2886;49.722;8.612;2022-11-21T02:38:26;5.70;99.90
5723;DHT22;2886;49.722;8.612;2022-11-21T02:41:16;5.70;99.90
5723;DHT22;2886;49.722;8.612;2022-11-21T02:43:57;5.70;99.90
5723;DHT22;2886;49.722;8.612;2022-11-21T02:46:26;5.60;99.90
5723;DHT22;2886;49.722;8.612;2022-11-21T02:48:52;5.50;99.90
5723;DHT22;2886;49.722;8.612;2022-11-21T02:51:19;5.50;99.90
5723;DHT22;2886;49.722;8.612;2022-11-21T02:53:44;5.40;99.90
5723;DHT22;2886;49.722;8.612;2022-11-21T02:56:10;5.40;99.90
5723;DHT22;2886;49.722;8.612;2022-11-21T02:58:36;5.40;99.90
5723;DHT22;2886;49.722;8.612;2022-11-21T03:01:01;5.40;99.90
5723;DHT22;2886;49.722;8.612;2022-11-21T03:03:27;5.40;99.90
5723;DHT22;2886;49.722;8.612;2022-11-21T03:05:53;5.40;99.90
5723;DHT22;2886;49.722;8.612;2022-11-21T03:08:19;5.40;99.90
5723;DHT22;2886;49.722;8.612;2022-11-21T03:10:45;5.40;99.90
5723;DHT22;2886;49.722;8.612;2022-11-21T03:13:10;5.40;99.90
5723;DHT22;2886;49.722;8.612;2022-11-21T03:15:36;5.30;99.90
5723;DHT22;2886;49.722;8.612;2022-11-21T03:18:02;5.40;99.90
5723;DHT22;2886;49.722;8.612;2022-11-21T03:20:29;5.30;99.90
5723;DHT22;2886;49.722;8.612;2022-11-21T03:22:55;5.40;99.90
5723;DHT22;2886;49.722;8.612;2022-11-21T03:25:20;5.50;99.90
5723;DHT22;2886;49.722;8.612;2022-11-21T03:27:51;5.60;99.90
5723;DHT22;2886;49.722;8.612;2022-11-21T03:30:21;5.60;99.90
5723;DHT22;2886;49.722;8.612;2022-11-21T03:32:47;5.70;99.90
5723;DHT22;2886;49.722;8.612;2022-11-21T03:35:13;5.70;99.90
5723;DHT22;2886;49.722;8.612;2022-11-21T03:37:56;5.70;99.90
5723;DHT22;2886;49.722;8.612;2022-11-21T03:40:22;5.70;99.90
5723;DHT22;2886;49.722;8.612;2022-11-21T03:42:47;5.80;99.90
5723;DHT22;2886;49.722;8.612;2022-11-21T03:45:13;5.80;99.90
5723;DHT22;2886;49.722;8.612;2022-11-21T03:47:39;5.80;99.90
5723;DHT22;2886;49.722;8.612;2022-11-21T03:50:05;5.80;99.90
5723;DHT22;2886;49.722;8.612;2022-11-21T03:52:31;5.80;99.90
5723;DHT22;2886;49.722;8.612;2022-11-21T03:54:57;5.80;99.90
5723;DHT22;2886;49.722;8.612;2022-11-21T03:57:31;5.80;99.90
5723;DHT22;2886;49.722;8.612;2022-11-21T03:59:57;5.90;99.90
5723;DHT22;2886;49.722;8.612;2022-11-21T04:02:22;5.90;99.90
5723;DHT22;2886;49.722;8.612;2022-11-21T04:04:48;5.90;99.90
5723;DHT22;2886;49.722;8.612;2022-11-21T04:07:13;6.00;99.90
5723;DHT22;2886;49.722;8.612;2022-11-21T04:09:40;6.00;99.90
5723;DHT22;2886;49.722;8.612;2022-11-21T04:12:06;6.10;99.90
5723;DHT22;2886;49.722;8.612;2022-11-21T04:14:32;6.10;99.90
5723;DHT22;2886;49.722;8.612;2022-11-21T04:16:57;6.10;99.90
5723;DHT22;2886;49.722;8.612;2022-11-21T04:19:23;6.10;99.90
5723;DHT22;2886;49.722;8.612;2022-11-21T04:21:48;6.20;99.90
5723;DHT22;2886;49.722;8.612;2022-11-21T04:24:14;6.30;99.90
5723;DHT22;2886;49.722;8.612;2022-11-21T04:26:40;6.20;99.90
5723;DHT22;2886;49.722;8.612;2022-11-21T04:29:05;6.30;99.90
5723;DHT22;2886;49.722;8.612;2022-11-21T04:31:31;6.30;99.90
5723;DHT22;2886;49.722;8.612;2022-11-21T04:33:57;6.20;99.90
5723;DHT22;2886;49.722;8.612;2022-11-21T04:36:23;6.20;99.90
5723;DHT22;2886;49.722;8.612;2022-11-21T04:38:48;6.20;99.90
5723;DHT22;2886;49.722;8.612;2022-11-21T04:41:14;6.20;99.90
5723;DHT22;2886;49.722;8.612;2022-11-21T04:43:39;6.10;99.90
5723;DHT22;2886;49.722;8.612;2022-11-21T04:46:05;6.00;99.90
5723;DHT22;2886;49.722;8.612;2022-11-21T04:48:31;6.00;99.90
5723;DHT22;2886;49.722;8.612;2022-11-21T04:50:57;5.90;99.90
5723;DHT22;2886;49.722;8.612;2022-11-21T04:53:22;5.90;99.90
5723;DHT22;2886;49.722;8.612;2022-11-21T04:55:48;5.90;99.90
5723;DHT22;2886;49.722;8.612;2022-11-21T04:58:14;6.00;99.90
5723;DHT22;2886;49.722;8.612;2022-11-21T05:00:39;6.00;99.90
5723;DHT22;2886;49.722;8.612;2022-11-21T05:03:05;6.00;99.90
5723;DHT22;2886;49.722;8.612;2022-11-21T05:05:32;6.10;99.90
5723;DHT22;2886;49.722;8.612;2022-11-21T05:08:00;6.20;99.90
5723;DHT22;2886;49.722;8.612;2022-11-21T05:10:28;6.20;99.90
5723;DHT22;2886;49.722;8.612;2022-11-21T05:12:58;6.20;99.90
5723;DHT22;2886;49.722;8.612;2022-11-21T05:15:43;6.30;99.90
5723;DHT22;2886;49.722;8.612;2022-11-21T05:18:09;6.30;99.90
5723;DHT22;2886;49.722;8.612;2022-11-21T05:20:34;6.40;99.90
5723;DHT22;2886;49.722;8.612;2022-11-21T05:23:00;6.30;99.90
5723;DHT22;2886;49.722;8.612;2022-11-21T05:25:27;6.40;99.90
5723;DHT22;2886;49.722;8.612;2022-11-21T05:27:55;6.40;99.90
5723;DHT22;2886;49.722;8.612;2022-11-21T05:30:21;6.40;99.90
5723;DHT22;2886;49.722;8.612;2022-11-21T05:32:46;6.40;99.90
5723;DHT22;2886;49.722;8.612;2022-11-21T05:35:12;6.50;99.90
5723;DHT22;2886;49.722;8.612;2022-11-21T05:37:37;6.40;99.90
5723;DHT22;2886;49.722;8.612;2022-11-21T05:40:03;6.40;99.90
5723;DHT22;2886;49.722;8.612;2022-11-21T05:42:29;6.50;99.90
5723;DHT22;2886;49.722;8.612;2022-11-21T05:45:13;6.50;99.90
5723;DHT22;2886;49.722;8.612;2022-11-21T05:47:40;6.50;99.90
5723;DHT22;2886;49.722;8.612;2022-11-21T05:50:06;6.50;99.90
5723;DHT22;2886;49.722;8.612;2022-11-21T05:52:32;6.50;99.90
5723;DHT22;2886;49.722;8.612;2022-11-21T05:54:58;6.50;99.90
5723;DHT22;2886;49.722;8.612;2022-11-21T05:57:23;6.50;99.90
5723;DHT22;2886;49.722;8.612;2022-11-21T05:59:49;6.50;99.90
5723;DHT22;2886;49.722;8.612;2022-11-21T06:02:14;6.50;99.90
5723;DHT22;2886;49.722;8.612;2022-11-21T06:04:58;6.50;99.90
5723;DHT22;2886;49.722;8.612;2022-11-21T06:07:24;6.50;99.90
5723;DHT22;2886;49.722;8.612;2022-11-21T06:09:49;6.50;99.90
5723;DHT22;2886;49.722;8.612;2022-11-21T06:12:15;6.60;99.90
5723;DHT22;2886;49.722;8.612;2022-11-21T06:14:41;6.60;99.90
5723;DHT22;2886;49.722;8.612;2022-11-21T06:17:06;6.60;99.90
5723;DHT22;2886;49.722;8.612;2022-11-21T06:19:32;6.60;99.90
5723;DHT22;2886;49.722;8.612;2022-11-21T06:21:57;6.60;99.90
5723;DHT22;2886;49.722;8.612;2022-11-21T06:24:23;6.60;99.90
5723;DHT22;2886;49.722;8.612;2022-11-21T06:26:48;6.60;99.90
5723;DHT22;2886;49.722;8.612;2022-11-21T06:29:14;6.60;99.90
5723;DHT22;2886;49.722;8.612;2022-11-21T06:31:41;6.60;99.90
5723;DHT22;2886;49.722;8.612;2022-11-21T06:34:06;6.50;99.90
5723;DHT22;2886;49.722;8.612;2022-11-21T06:36:32;6.50;99.90
5723;DHT22;2886;49.722;8.612;2022-11-21T06:38:57;6.50;99.90
5723;DHT22;2886;49.722;8.612;2022-11-21T06:41:25;6.50;99.90
5723;DHT22;2886;49.722;8.612;2022-11-21T06:43:51;6.50;99.90
5723;DHT22;2886;49.722;8.612;2022-11-21T06:46:17;6.50;99.90
5723;DHT22;2886;49.722;8.612;2022-11-21T06:48:43;6.50;99.90
5723;DHT22;2886;49.722;8.612;2022-11-21T06:51:13;6.50;99.90
5723;DHT22;2886;49.722;8.612;2022-11-21T06:53:40;6.40;99.90
5723;DHT22;2886;49.722;8.612;2022-11-21T06:56:06;6.50;99.90
5723;DHT22;2886;49.722;8.612;2022-11-21T06:58:31;6.50;99.90
5723;DHT22;2886;49.722;8.612;2022-11-21T07:01:01;6.50;99.90
5723;DHT22;2886;49.722;8.612;2022-11-21T07:03:27;6.50;99.90
5723;DHT22;2886;49.722;8.612;2022-11-21T07:05:53;6.50;99.90
5723;DHT22;2886;49.722;8.612;2022-11-21T07:08:22;6.50;99.90
5723;DHT22;2886;49.722;8.612;2022-11-21T07:10:49;6.50;99.90
5723;DHT22;2886;49.722;8.612;2022-11-21T07:13:14;6.50;99.90
5723;DHT22;2886;49.722;8.612;2022-11-21T07:15:50;6.50;99.90
5723;DHT22;2886;49.722;8.612;2022-11-21T07:18:16;6.50;99.90
5723;DHT22;2886;49.722;8.612;2022-11-21T07:20:41;6.50;99.90
5723;DHT22;2886;49.722;8.612;2022-11-21T07:23:07;6.60;99.90
5723;DHT22;2886;49.722;8.612;2022-11-21T07:25:33;6.60;99.90
5723;DHT22;2886;49.722;8.612;2022-11-21T07:27:59;6.60;99.90
5723;DHT22;2886;49.722;8.612;2022-11-21T07:30:25;6.70;99.90
5723;DHT22;2886;49.722;8.612;2022-11-21T07:32:57;6.70;99.90
5723;DHT22;2886;49.722;8.612;2022-11-21T07:35:23;6.70;99.90
5723;DHT22;2886;49.722;8.612;2022-11-21T07:37:48;6.60;99.90
5723;DHT22;2886;49.722;8.612;2022-11-21T07:40:14;6.60;99.90
5723;DHT22;2886;49.722;8.612;2022-11-21T07:42:40;6.70;99.90
5723;DHT22;2886;49.722;8.612;2022-11-21T07:45:06;6.70;99.90
5723;DHT22;2886;49.722;8.612;2022-11-21T07:47:32;6.70;99.90
5723;DHT22;2886;49.722;8.612;2022-11-21T07:49:57;6.80;99.90
5723;DHT22;2886;49.722;8.612;2022-11-21T07:52:23;6.80;99.90
5723;DHT22;2886;49.722;8.612;2022-11-21T07:54:50;6.90;99.90
5723;DHT22;2886;49.722;8.612;2022-11-21T07:57:15;6.90;99.90
5723;DHT22;2886;49.722;8.612;2022-11-21T07:59:42;6.90;99.90
5723;DHT22;2886;49.722;8.612;2022-11-21T08:02:20;7.00;99.90
5723;DHT22;2886;49.722;8.612;2022-11-21T08:04:47;7.00;99.90
5723;DHT22;2886;49.722;8.612;2022-11-21T08:07:17;7.00;99.90
5723;DHT22;2886;49.722;8.612;2022-11-21T08:09:43;7.00;99.90
5723;DHT22;2886;49.722;8.612;2022-11-21T08:12:09;7.00;99.90
5723;DHT22;2886;49.722;8.612;2022-11-21T08:14:35;7.00;99.90
5723;DHT22;2886;49.722;8.612;2022-11-21T08:17:02;7.10;99.90
5723;DHT22;2886;49.722;8.612;2022-11-21T08:19:28;7.10;99.90
5723;DHT22;2886;49.722;8.612;2022-11-21T08:21:53;7.20;99.90
5723;DHT22;2886;49.722;8.612;2022-11-21T08:24:19;7.30;99.90
5723;DHT22;2886;49.722;8.612;2022-11-21T08:26:45;7.40;99.90
5723;DHT22;2886;49.722;8.612;2022-11-21T08:29:11;7.40;99.90
5723;DHT22;2886;49.722;8.612;2022-11-21T08:31:38;7.40;99.90
5723;DHT22;2886;49.722;8.612;2022-11-21T08:34:04;7.40;99.90
5723;DHT22;2886;49.722;8.612;2022-11-21T08:36:30;7.40;99.90
5723;DHT22;2886;49.722;8.612;2022-11-21T08:38:56;7.40;99.90
5723;DHT22;2886;49.722;8.612;2022-11-21T08:41:22;7.40;99.90
5723;DHT22;2886;49.722;8.612;2022-11-21T08:44:06;7.50;99.90
5723;DHT22;2886;49.722;8.612;2022-11-21T08:46:35;7.60;99.90
5723;DHT22;2886;49.722;8.612;2022-11-21T08:49:07;7.60;99.90
5723;DHT22;2886;49.722;8.612;2022-11-21T08:51:34;7.70;99.90
5723;DHT22;2886;49.722;8.612;2022-11-21T08:54:00;7.70;99.90
5723;DHT22;2886;49.722;8.612;2022-11-21T08:56:25;7.60;99.90
5723;DHT22;2886;49.722;8.612;2022-11-21T08:58:51;7.60;99.90
5723;DHT22;2886;49.722;8.612;2022-11-21T09:01:17;7.60;99.90
5723;DHT22;2886;49.722;8.612;2022-11-21T09:03:43;7.70;99.90
5723;DHT22;2886;49.722;8.612;2022-11-21T09:06:09;7.70;99.90
5723;DHT22;2886;49.722;8.612;2022-11-21T09:08:35;7.80;99.90
5723;DHT22;2886;49.722;8.612;2022-11-21T09:11:08;7.90;99.90
5723;DHT22;2886;49.722;8.612;2022-11-21T09:13:35;7.90;99.90
5723;DHT22;2886;49.722;8.612;2022-11-21T09:16:01;7.90;99.90
5723;DHT22;2886;49.722;8.612;2022-11-21T09:18:45;8.00;99.90
5723;DHT22;2886;49.722;8.612;2022-11-21T09:21:15;8.00;99.90
5723;DHT22;2886;49.722;8.612;2022-11-21T09:23:41;8.10;99.90
5723;DHT22;2886;49.722;8.612;2022-11-21T09:26:07;8.10;99.90
5723;DHT22;2886;49.722;8.612;2022-11-21T09:28:33;8.40;99.90
5723;DHT22;2886;49.722;8.612;2022-11-21T09:31:01;8.60;99.90
5723;DHT22;2886;49.722;8.612;2022-11-21T09:33:27;8.60;99.90
5723;DHT22;2886;49.722;8.612;2022-11-21T09:35:53;8.60;99.90
5723;DHT22;2886;49.722;8.612;2022-11-21T09:38:18;8.60;99.90
5723;DHT22;2886;49.722;8.612;2022-11-21T09:40:45;8.60;99.90
5723;DHT22;2886;49.722;8.612;2022-11-21T09:48:35;8.70;99.90
5723;DHT22;2886;49.722;8.612;2022-11-21T09:51:09;8.70;99.90
5723;DHT22;2886;49.722;8.612;2022-11-21T09:53:39;8.60;99.90
5723;DHT22;2886;49.722;8.612;2022-11-21T09:56:15;8.60;99.90
5723;DHT22;2886;49.722;8.612;2022-11-21T10:01:18;8.70;99.90
5723;DHT22;2886;49.722;8.612;2022-11-21T10:03:49;8.90;99.90
5723;DHT22;2886;49.722;8.612;2022-11-21T10:11:31;9.70;99.90
5723;DHT22;2886;49.722;8.612;2022-11-21T10:14:30;9.70;99.90
5723;DHT22;2886;49.722;8.612;2022-11-21T10:22:41;10.30;99.90
5723;DHT22;2886;49.722;8.612;2022-11-21T10:25:18;10.30;99.90
5723;DHT22;2886;49.722;8.612;2022-11-21T10:27:49;10.40;99.90
5723;DHT22;2886;49.722;8.612;2022-11-21T10:30:20;10.30;99.90
5723;DHT22;2886;49.722;8.612;2022-11-21T10:35:14;9.90;99.90
5723;DHT22;2886;49.722;8.612;2022-11-21T10:37:57;9.90;99.90
5723;DHT22;2886;49.722;8.612;2022-11-21T10:40:38;9.90;99.90
5723;DHT22;2886;49.722;8.612;2022-11-21T10:46:05;10.40;99.90
5723;DHT22;2886;49.722;8.612;2022-11-21T10:48:32;10.50;99.90
5723;DHT22;2886;49.722;8.612;2022-11-21T10:53:35;10.50;99.90
5723;DHT22;2886;49.722;8.612;2022-11-21T10:56:21;10.40;99.90
5723;DHT22;2886;49.722;8.612;2022-11-21T10:58:49;10.40;99.90
5723;DHT22;2886;49.722;8.612;2022-11-21T11:01:30;10.00;99.90
5723;DHT22;2886;49.722;8.612;2022-11-21T11:06:43;9.60;99.90
5723;DHT22;2886;49.722;8.612;2022-11-21T11:09:31;9.50;99.90
5723;DHT22;2886;49.722;8.612;2022-11-21T11:12:24;9.60;99.90
5723;DHT22;2886;49.722;8.612;2022-11-21T11:15:22;9.80;99.90
5723;DHT22;2886;49.722;8.612;2022-11-21T11:17:52;10.00;99.90
5723;DHT22;2886;49.722;8.612;2022-11-21T11:20:40;10.20;99.90
5723;DHT22;2886;49.722;8.612;2022-11-21T11:23:24;10.40;99.90
5723;DHT22;2886;49.722;8.612;2022-11-21T11:25:53;10.60;99.90
5723;DHT22;2886;49.722;8.612;2022-11-21T11:28:19;10.70;99.90
5723;DHT22;2886;49.722;8.612;2022-11-21T11:30:46;10.70;99.90
5723;DHT22;2886;49.722;8.612;2022-11-21T11:33:38;10.70;99.90
5723;DHT22;2886;49.722;8.612;2022-11-21T11:36:36;10.80;99.90
5723;DHT22;2886;49.722;8.612;2022-11-21T11:39:37;10.70;99.90
5723;DHT22;2886;49.722;8.612;2022-11-21T11:42:13;10.60;99.90
5723;DHT22;2886;49.722;8.612;2022-11-21T11:48:00;10.30;99.90
5723;DHT22;2886;49.722;8.612;2022-11-21T11:50:45;10.30;99.90
5723;DHT22;2886;49.722;8.612;2022-11-21T11:53:47;10.30;99.90
5723;DHT22;2886;49.722;8.612;2022-11-21T11:56:31;10.30;99.90
5723;DHT22;2886;49.722;8.612;2022-11-21T11:59:06;10.10;99.90
5723;DHT22;2886;49.722;8.612;2022-11-21T12:01:42;10.10;99.90
5723;DHT22;2886;49.722;8.612;2022-11-21T12:04:17;10.00;99.90
5723;DHT22;2886;49.722;8.612;2022-11-21T12:07:03;9.90;99.90
5723;DHT22;2886;49.722;8.612;2022-11-21T12:17:53;9.70;99.90
5723;DHT22;2886;49.722;8.612;2022-11-21T12:20:28;9.60;99.90
5723;DHT22;2886;49.722;8.612;2022-11-21T12:22:54;9.50;99.90
5723;DHT22;2886;49.722;8.612;2022-11-21T12:25:26;9.50;99.90
5723;DHT22;2886;49.722;8.612;2022-11-21T12:27:54;9.50;99.90
5723;DHT22;2886;49.722;8.612;2022-11-21T12:30:49;9.50;99.90
5723;DHT22;2886;49.722;8.612;2022-11-21T12:33:23;9.50;99.90
5723;DHT22;2886;49.722;8.612;2022-11-21T12:36:10;9.60;99.90
5723;DHT22;2886;49.722;8.612;2022-11-21T12:45:04;9.90;99.90
5723;DHT22;2886;49.722;8.612;2022-11-21T12:57:11;9.80;99.90
5723;DHT22;2886;49.722;8.612;2022-11-21T13:05:12;9.70;99.90
5723;DHT22;2886;49.722;8.612;2022-11-21T13:07:41;9.70;99.90
5723;DHT22;2886;49.722;8.612;2022-11-21T13:10:13;9.70;99.90
5723;DHT22;2886;49.722;8.612;2022-11-21T13:13:31;9.70;99.90
5723;DHT22;2886;49.722;8.612;2022-11-21T13:16:07;9.70;99.90
5723;DHT22;2886;49.722;8.612;2022-11-21T13:18:40;9.70;99.90
5723;DHT22;2886;49.722;8.612;2022-11-21T13:21:40;9.70;99.90
5723;DHT22;2886;49.722;8.612;2022-11-21T13:24:06;9.70;99.90
5723;DHT22;2886;49.722;8.612;2022-11-21T13:29:09;9.60;99.90
5723;DHT22;2886;49.722;8.612;2022-11-21T13:31:35;9.60;99.90
5723;DHT22;2886;49.722;8.612;2022-11-21T13:34:03;9.60;99.90
5723;DHT22;2886;49.722;8.612;2022-11-21T13:49:49;9.60;99.90
5723;DHT22;2886;49.722;8.612;2022-11-21T14:03:07;9.80;99.90
5723;DHT22;2886;49.722;8.612;2022-11-21T14:08:28;9.80;99.90
5723;DHT22;2886;49.722;8.612;2022-11-21T14:10:55;9.90;99.90
5723;DHT22;2886;49.722;8.612;2022-11-21T14:18:43;10.00;99.90
5723;DHT22;2886;49.722;8.612;2022-11-21T14:21:24;10.00;99.90
5723;DHT22;2886;49.722;8.612;2022-11-21T14:23:56;10.00;99.90
5723;DHT22;2886;49.722;8.612;2022-11-21T14:26:22;10.00;99.90
5723;DHT22;2886;49.722;8.612;2022-11-21T14:28:50;10.00;99.90
5723;DHT22;2886;49.722;8.612;2022-11-21T14:31:16;9.90;99.90
5723;DHT22;2886;49.722;8.612;2022-11-21T14:33:44;9.80;99.90
5723;DHT22;2886;49.722;8.612;2022-11-21T14:36:19;9.70;99.90
5723;DHT22;2886;49.722;8.612;2022-11-21T14:38:51;9.60;99.90
5723;DHT22;2886;49.722;8.612;2022-11-21T14:43:45;9.40;99.90
5723;DHT22;2886;49.722;8.612;2022-11-21T14:46:15;9.20;99.90
5723;DHT22;2886;49.722;8.612;2022-11-21T14:48:43;9.10;99.90
5723;DHT22;2886;49.722;8.612;2022-11-21T14:51:10;9.00;99.90
5723;DHT22;2886;49.722;8.612;2022-11-21T14:53:42;8.90;99.90
5723;DHT22;2886;49.722;8.612;2022-11-21T14:56:22;8.80;99.90
5723;DHT22;2886;49.722;8.612;2022-11-21T14:58:50;8.70;99.90
5723;DHT22;2886;49.722;8.612;2022-11-21T15:01:24;8.60;99.90
5723;DHT22;2886;49.722;8.612;2022-11-21T15:04:01;8.50;99.90
5723;DHT22;2886;49.722;8.612;2022-11-21T15:06:27;8.50;99.90
5723;DHT22;2886;49.722;8.612;2022-11-21T15:08:54;8.50;99.90
5723;DHT22;2886;49.722;8.612;2022-11-21T15:11:29;8.40;99.90
5723;DHT22;2886;49.722;8.612;2022-11-21T15:14:01;8.40;99.90
5723;DHT22;2886;49.722;8.612;2022-11-21T15:16:29;8.20;99.90
5723;DHT22;2886;49.722;8.612;2022-11-21T15:18:55;8.20;99.90
5723;DHT22;2886;49.722;8.612;2022-11-21T15:21:21;8.10;99.90
5723;DHT22;2886;49.722;8.612;2022-11-21T15:23:46;8.00;99.90
5723;DHT22;2886;49.722;8.612;2022-11-21T15:26:32;8.00;99.90
5723;DHT22;2886;49.722;8.612;2022-11-21T15:29:00;7.90;99.90
5723;DHT22;2886;49.722;8.612;2022-11-21T15:31:26;7.90;99.90
5723;DHT22;2886;49.722;8.612;2022-11-21T15:34:04;7.90;99.90
5723;DHT22;2886;49.722;8.612;2022-11-21T15:36:32;7.90;99.90
5723;DHT22;2886;49.722;8.612;2022-11-21T15:39:20;7.90;99.90
5723;DHT22;2886;49.722;8.612;2022-11-21T15:41:46;8.00;99.90
5723;DHT22;2886;49.722;8.612;2022-11-21T15:46:38;7.90;99.90
5723;DHT22;2886;49.722;8.612;2022-11-21T15:49:09;7.90;99.90
5723;DHT22;2886;49.722;8.612;2022-11-21T15:51:42;7.90;99.90
5723;DHT22;2886;49.722;8.612;2022-11-21T15:54:14;7.90;99.90
5723;DHT22;2886;49.722;8.612;2022-11-21T15:56:40;7.90;99.90
5723;DHT22;2886;49.722;8.612;2022-11-21T15:59:06;7.90;99.90
5723;DHT22;2886;49.722;8.612;2022-11-21T16:01:32;7.90;99.90
5723;DHT22;2886;49.722;8.612;2022-11-21T16:04:00;7.90;99.90
5723;DHT22;2886;49.722;8.612;2022-11-21T16:06:26;7.90;99.90
5723;DHT22;2886;49.722;8.612;2022-11-21T16:08:52;7.90;99.90
5723;DHT22;2886;49.722;8.612;2022-11-21T16:11:24;7.90;99.90
5723;DHT22;2886;49.722;8.612;2022-11-21T16:13:52;7.90;99.90
5723;DHT22;2886;49.722;8.612;2022-11-21T16:16:19;7.90;99.90
5723;DHT22;2886;49.722;8.612;2022-11-21T16:18:45;7.90;99.90
5723;DHT22;2886;49.722;8.612;2022-11-21T16:21:11;7.90;99.90
5723;DHT22;2886;49.722;8.612;2022-11-21T16:23:37;7.90;99.90
5723;DHT22;2886;49.722;8.612;2022-11-21T16:26:04;7.80;99.90
5723;DHT22;2886;49.722;8.612;2022-11-21T16:28:30;7.70;99.90
5723;DHT22;2886;49.722;8.612;2022-11-21T16:30:59;7.70;99.90
5723;DHT22;2886;49.722;8.612;2022-11-21T16:33:25;7.70;99.90
5723;DHT22;2886;49.722;8.612;2022-11-21T16:35:51;7.70;99.90
5723;DHT22;2886;49.722;8.612;2022-11-21T16:38:22;7.60;99.90
5723;DHT22;2886;49.722;8.612;2022-11-21T16:40:58;7.60;99.90
5723;DHT22;2886;49.722;8.612;2022-11-21T16:43:25;7.60;99.90
5723;DHT22;2886;49.722;8.612;2022-11-21T16:45:52;7.60;99.90
5723;DHT22;2886;49.722;8.612;2022-11-21T16:48:19;7.60;99.90
5723;DHT22;2886;49.722;8.612;2022-11-21T16:50:45;7.60;99.90
5723;DHT22;2886;49.722;8.612;2022-11-21T16:53:10;7.50;99.90
5723;DHT22;2886;49.722;8.612;2022-11-21T16:55:36;7.60;99.90
5723;DHT22;2886;49.722;8.612;2022-11-21T16:58:02;7.60;99.90
5723;DHT22;2886;49.722;8.612;2022-11-21T17:00:27;7.60;99.90
5723;DHT22;2886;49.722;8.612;2022-11-21T17:02:54;7.60;99.90
5723;DHT22;2886;49.722;8.612;2022-11-21T17:05:20;7.60;99.90
5723;DHT22;2886;49.722;8.612;2022-11-21T17:07:46;7.50;99.90
5723;DHT22;2886;49.722;8.612;2022-11-21T17:10:12;7.50;99.90
5723;DHT22;2886;49.722;8.612;2022-11-21T17:12:40;7.50;99.90
5723;DHT22;2886;49.722;8.612;2022-11-21T17:15:11;7.50;99.90
5723;DHT22;2886;49.722;8.612;2022-11-21T17:17:38;7.50;99.90
5723;DHT22;2886;49.722;8.612;2022-11-21T17:20:05;7.60;99.90
5723;DHT22;2886;49.722;8.612;2022-11-21T17:22:31;7.60;99.90
5723;DHT22;2886;49.722;8.612;2022-11-21T17:24:57;7.70;99.90
5723;DHT22;2886;49.722;8.612;2022-11-21T17:27:23;7.80;99.90
5723;DHT22;2886;49.722;8.612;2022-11-21T17:29:49;7.90;99.90
5723;DHT22;2886;49.722;8.612;2022-11-21T17:32:15;7.90;99.90
5723;DHT22;2886;49.722;8.612;2022-11-21T17:34:41;7.90;99.90
5723;DHT22;2886;49.722;8.612;2022-11-21T17:37:07;7.90;99.90
5723;DHT22;2886;49.722;8.612;2022-11-21T17:39:33;7.90;99.90
5723;DHT22;2886;49.722;8.612;2022-11-21T17:41:59;7.90;99.90
5723;DHT22;2886;49.722;8.612;2022-11-21T17:44:26;7.90;99.90
5723;DHT22;2886;49.722;8.612;2022-11-21T17:46:52;7.90;99.90
5723;DHT22;2886;49.722;8.612;2022-11-21T17:49:17;7.90;99.90
5723;DHT22;2886;49.722;8.612;2022-11-21T17:51:43;8.00;99.90
5723;DHT22;2886;49.722;8.612;2022-11-21T17:54:09;7.90;99.90
5723;DHT22;2886;49.722;8.612;2022-11-21T17:56:37;7.90;99.90
5723;DHT22;2886;49.722;8.612;2022-11-21T17:59:03;8.00;99.90
5723;DHT22;2886;49.722;8.612;2022-11-21T18:01:30;8.00;99.90
5723;DHT22;2886;49.722;8.612;2022-11-21T18:04:01;8.00;99.90
5723;DHT22;2886;49.722;8.612;2022-11-21T18:06:31;8.00;99.90
5723;DHT22;2886;49.722;8.612;2022-11-21T18:08:58;8.00;99.90
5723;DHT22;2886;49.722;8.612;2022-11-21T18:11:27;8.00;99.90
5723;DHT22;2886;49.722;8.612;2022-11-21T18:13:53;8.10;99.90
5723;DHT22;2886;49.722;8.612;2022-11-21T18:16:21;8.10;99.90
5723;DHT22;2886;49.722;8.612;2022-11-21T18:18:47;8.00;99.90